Terminal Aerodrome Forecast
Issued by NWS

Home | Current Version | Previous Version | Text Only | Print | Product List | Glossary On
Versions: 1 2 3 4 5 6 7 8 9 10 11 12 13 14 15 16 17 18 19 20 21 22 23 24 25 26 27
000
FTUS46 KSGX 250500
TAFSAN
TAF
KSAN 250520Z 2506/2612 19004KT P6SM BKN015
     FM250900 17005KT P6SM OVC020
     FM251700 18009KT P6SM BKN020
     FM252000 22009G16KT P6SM SCT025
     FM260100 25011KT P6SM BKN020
     FM261000 26015G25KT P6SM VCSH OVC025=

USA.gov is the U.S. government's official web portal to all federal, state and local government web resources and services.